createdAt,value
2018-06-02T00:00:26.833Z,99.90
2018-06-02T00:02:54.277Z,99.90
2018-06-02T00:22:39.004Z,99.90
2018-06-02T00:25:06.500Z,99.90
2018-06-02T00:27:33.934Z,99.90
2018-06-02T00:30:01.423Z,99.90
2018-06-02T00:32:28.874Z,99.90
2018-06-02T00:34:56.352Z,99.90
2018-06-02T00:37:23.795Z,99.90
2018-06-02T00:39:51.249Z,99.90
2018-06-02T00:42:18.682Z,99.90
2018-06-02T00:44:46.161Z,99.90
2018-06-02T00:47:13.609Z,99.90
2018-06-02T00:49:41.061Z,99.90
2018-06-02T00:52:08.532Z,99.90
2018-06-02T00:54:47.724Z,99.90
2018-06-02T00:57:15.169Z,99.90
2018-06-02T00:59:42.628Z,99.90
2018-06-02T01:02:10.066Z,99.90
2018-06-02T01:04:37.577Z,99.90
2018-06-02T01:07:05.005Z,99.90
2018-06-02T01:09:32.443Z,99.90
2018-06-02T01:11:59.897Z,99.90
2018-06-02T01:14:27.355Z,99.90
2018-06-02T01:16:54.815Z,99.90
2018-06-02T01:19:22.262Z,99.90
2018-06-02T01:21:49.728Z,99.90
2018-06-02T01:24:17.171Z,99.90
2018-06-02T01:26:44.635Z,99.90
2018-06-02T01:29:12.099Z,99.90
2018-06-02T01:31:39.546Z,99.90
2018-06-02T01:34:07.016Z,99.90
2018-06-02T01:53:52.848Z,99.90
2018-06-02T01:56:20.306Z,99.90
2018-06-02T01:58:47.752Z,99.90
2018-06-02T02:01:15.214Z,99.90
2018-06-02T02:03:42.665Z,99.90
2018-06-02T02:06:10.142Z,99.90
2018-06-02T02:08:37.592Z,99.90
2018-06-02T02:11:05.047Z,99.90
2018-06-02T02:13:33.275Z,99.90
2018-06-02T02:16:00.714Z,99.90
2018-06-02T02:18:28.165Z,99.90
2018-06-02T02:20:55.811Z,99.90
2018-06-02T02:23:23.330Z,99.90
2018-06-02T02:25:50.797Z,99.90
2018-06-02T02:28:18.248Z,99.90
2018-06-02T02:30:45.704Z,99.90
2018-06-02T02:33:13.173Z,99.90
2018-06-02T02:35:40.641Z,99.90
2018-06-02T02:38:08.107Z,99.90
2018-06-02T02:40:35.560Z,99.90
2018-06-02T02:43:03.038Z,99.90
2018-06-02T02:45:30.495Z,99.90
2018-06-02T02:47:57.949Z,99.90
2018-06-02T02:50:25.416Z,99.90
2018-06-02T02:52:52.891Z,99.90
2018-06-02T02:55:21.206Z,99.90
2018-06-02T02:57:49.419Z,99.90
2018-06-02T03:00:16.903Z,99.90
2018-06-02T03:02:44.364Z,99.90
2018-06-02T03:05:11.827Z,99.90
2018-06-02T03:07:39.288Z,99.90
2018-06-02T03:10:06.750Z,99.90
2018-06-02T03:12:34.201Z,99.90
2018-06-02T03:15:01.652Z,99.90
2018-06-02T03:17:29.123Z,99.90
2018-06-02T03:19:56.610Z,99.90
2018-06-02T03:22:24.039Z,99.90
2018-06-02T03:24:51.483Z,99.90
2018-06-02T03:27:18.935Z,99.90
2018-06-02T03:29:47.164Z,99.90
2018-06-02T03:32:14.610Z,99.90
2018-06-02T03:34:42.084Z,99.90
2018-06-02T03:37:09.532Z,99.90
2018-06-02T03:39:37.014Z,99.90
2018-06-02T03:42:04.467Z,99.90
2018-06-02T03:44:31.925Z,99.90
2018-06-02T03:46:59.415Z,99.90
2018-06-02T03:49:26.873Z,99.90
2018-06-02T03:51:54.326Z,99.90
2018-06-02T03:54:21.791Z,99.90
2018-06-02T03:56:49.251Z,99.90
2018-06-02T03:59:16.724Z,99.90
2018-06-02T04:01:44.176Z,99.90
2018-06-02T04:04:11.638Z,99.90
2018-06-02T04:06:39.090Z,99.90
2018-06-02T04:09:06.568Z,99.90
2018-06-02T04:11:34.006Z,99.90
2018-06-02T04:14:01.474Z,99.90
2018-06-02T04:16:28.912Z,99.90
2018-06-02T04:18:56.421Z,99.90
2018-06-02T04:21:23.853Z,99.90
2018-06-02T04:23:51.324Z,99.90
2018-06-02T04:26:18.790Z,99.90
2018-06-02T04:28:46.301Z,99.90
2018-06-02T04:31:13.751Z,99.90
2018-06-02T04:33:41.195Z,99.90
2018-06-02T04:36:08.651Z,99.90
2018-06-02T04:38:36.111Z,99.90
2018-06-02T04:41:03.604Z,99.90
2018-06-02T04:43:31.048Z,99.90
2018-06-02T04:45:58.502Z,99.90
2018-06-02T04:48:25.968Z,99.90
2018-06-02T04:50:53.422Z,99.90
2018-06-02T04:53:20.871Z,99.90
2018-06-02T04:55:48.347Z,99.90
2018-06-02T04:58:15.798Z,99.90
2018-06-02T05:00:43.256Z,99.90
2018-06-02T05:03:10.712Z,99.90
2018-06-02T05:05:38.165Z,99.90
2018-06-02T05:08:05.660Z,99.90
2018-06-02T05:10:33.131Z,99.90
2018-06-02T05:13:00.591Z,99.90
2018-06-02T05:15:28.063Z,99.90
2018-06-02T05:17:55.504Z,99.90
2018-06-02T05:20:25.244Z,99.90
2018-06-02T05:22:52.752Z,99.90
2018-06-02T05:25:21.014Z,99.90
2018-06-02T05:27:49.224Z,99.90
2018-06-02T05:30:16.696Z,99.90
2018-06-02T05:32:44.157Z,99.90
2018-06-02T05:35:11.630Z,99.90
2018-06-02T05:37:39.101Z,99.90
2018-06-02T05:40:06.571Z,99.90
2018-06-02T05:42:34.052Z,99.90
2018-06-02T05:45:01.510Z,99.90
2018-06-02T05:47:28.968Z,99.90
2018-06-02T05:49:56.412Z,99.90
2018-06-02T05:52:23.884Z,99.90
2018-06-02T05:54:51.338Z,99.90
2018-06-02T05:57:18.803Z,99.90
2018-06-02T05:59:46.265Z,99.90
2018-06-02T06:02:13.726Z,99.90
2018-06-02T06:04:41.178Z,99.90
2018-06-02T06:07:09.420Z,99.90
2018-06-02T06:09:37.638Z,99.90
2018-06-02T06:12:05.127Z,99.90
2018-06-02T06:14:32.590Z,99.90
2018-06-02T06:17:00.057Z,99.90
2018-06-02T06:19:27.510Z,99.90
2018-06-02T06:21:54.961Z,99.90
2018-06-02T06:24:22.413Z,99.90
2018-06-02T06:26:49.899Z,99.90
2018-06-02T06:29:17.320Z,99.90
2018-06-02T06:31:44.773Z,99.90
2018-06-02T06:34:12.224Z,99.90
2018-06-02T06:36:39.690Z,99.90
2018-06-02T06:39:07.972Z,99.90
2018-06-02T06:41:35.375Z,99.90
2018-06-02T06:44:02.829Z,99.90
2018-06-02T06:46:30.288Z,99.90
2018-06-02T06:48:57.737Z,99.90
2018-06-02T06:51:25.238Z,99.90
2018-06-02T06:53:52.743Z,99.90
2018-06-02T06:56:20.956Z,99.90
2018-06-02T06:58:48.407Z,99.90
2018-06-02T07:01:16.757Z,99.90
2018-06-02T07:03:45.009Z,99.90
2018-06-02T07:06:12.507Z,99.90
2018-06-02T07:08:40.724Z,99.90
2018-06-02T07:11:08.176Z,99.90
2018-06-02T07:13:35.628Z,99.90
2018-06-02T07:16:03.079Z,99.90
2018-06-02T07:18:31.324Z,99.90
2018-06-02T07:20:58.782Z,99.90
2018-06-02T07:23:26.252Z,99.90
2018-06-02T07:25:53.773Z,99.30
2018-06-02T07:28:21.221Z,99.10
2018-06-02T07:30:48.785Z,99.80
2018-06-02T07:33:16.249Z,99.10
2018-06-02T07:35:43.756Z,99.20
2018-06-02T07:38:11.213Z,98.90
2018-06-02T07:40:38.768Z,99.00
2018-06-02T07:43:06.234Z,98.90
2018-06-02T07:45:33.694Z,99.00
2018-06-02T07:48:01.159Z,99.10
2018-06-02T07:50:28.920Z,99.10
2018-06-02T07:52:56.388Z,99.10
2018-06-02T07:55:23.833Z,99.20
2018-06-02T07:57:51.317Z,99.30
2018-06-02T08:00:18.752Z,99.20
2018-06-02T08:02:46.204Z,99.30
2018-06-02T08:05:13.738Z,99.30
2018-06-02T08:07:41.241Z,99.10
2018-06-02T08:10:08.701Z,99.40
2018-06-02T08:12:36.153Z,99.00
2018-06-02T08:15:03.611Z,98.90
2018-06-02T08:17:31.061Z,98.90
2018-06-02T08:19:59.291Z,98.60
2018-06-02T08:22:26.732Z,98.60
2018-06-02T08:24:54.198Z,98.60
2018-06-02T08:27:21.695Z,97.80
2018-06-02T08:29:49.148Z,97.40
2018-06-02T08:32:17.512Z,97.60
2018-06-02T08:34:44.968Z,97.10
2018-06-02T08:37:12.411Z,95.80
2018-06-02T08:39:39.874Z,96.40
2018-06-02T08:42:08.109Z,96.30
2018-06-02T08:44:35.554Z,96.30
2018-06-02T08:47:03.008Z,95.90
2018-06-02T08:49:30.468Z,95.80
2018-06-02T08:52:01.245Z,95.80
2018-06-02T08:54:28.838Z,95.60
2018-06-02T08:56:57.078Z,95.90
2018-06-02T08:59:24.540Z,96.20
2018-06-02T09:01:51.988Z,95.70
2018-06-02T09:04:19.463Z,95.50
2018-06-02T09:06:46.921Z,94.90
2018-06-02T09:09:14.396Z,95.20
2018-06-02T09:11:41.853Z,95.40
2018-06-02T09:14:09.326Z,95.70
2018-06-02T09:16:36.789Z,94.80
2018-06-02T09:19:04.234Z,95.10
2018-06-02T09:21:31.694Z,95.20
2018-06-02T09:23:59.152Z,94.80
2018-06-02T09:26:26.616Z,95.10
2018-06-02T09:28:54.066Z,93.20
2018-06-02T09:31:21.547Z,94.60
2018-06-02T09:33:49.005Z,93.90
2018-06-02T09:36:16.471Z,94.10
2018-06-02T09:38:43.923Z,93.90
2018-06-02T09:41:11.385Z,94.60
2018-06-02T09:43:38.851Z,94.60
2018-06-02T09:46:06.312Z,94.70
2018-06-02T09:48:33.747Z,95.20
2018-06-02T09:51:01.253Z,95.10
2018-06-02T09:53:28.737Z,95.70
2018-06-02T09:55:56.187Z,95.70
2018-06-02T09:58:23.647Z,95.90
2018-06-02T10:00:51.118Z,96.30
2018-06-02T10:03:18.577Z,96.70
2018-06-02T10:05:46.038Z,96.80
2018-06-02T10:08:13.486Z,96.50
2018-06-02T10:10:40.941Z,96.20
2018-06-02T10:13:08.397Z,96.70
2018-06-02T10:15:35.862Z,96.20
2018-06-02T10:18:03.335Z,96.30
2018-06-02T10:20:30.831Z,96.60
2018-06-02T10:22:58.298Z,95.70
2018-06-02T10:25:26.518Z,95.80
2018-06-02T10:27:53.974Z,95.80
2018-06-02T10:30:21.505Z,96.10
2018-06-02T10:32:49.795Z,96.30
2018-06-02T10:35:17.264Z,96.30
2018-06-02T10:37:45.501Z,96.10
2018-06-02T10:40:12.947Z,96.10
2018-06-02T10:42:40.410Z,96.30
2018-06-02T10:45:07.840Z,96.30
2018-06-02T10:47:35.824Z,96.40
2018-06-02T10:50:03.283Z,96.90
2018-06-02T10:52:30.743Z,96.50
2018-06-02T10:54:58.202Z,96.60
2018-06-02T10:57:27.010Z,95.70
2018-06-02T10:59:54.705Z,95.90
2018-06-02T11:02:22.179Z,96.30
2018-06-02T11:04:49.625Z,96.60
2018-06-02T11:07:17.089Z,96.90
2018-06-02T11:09:44.540Z,96.80
2018-06-02T11:12:12.008Z,96.30
2018-06-02T11:14:39.488Z,95.90
2018-06-02T11:17:06.967Z,96.10
2018-06-02T11:19:34.463Z,94.80
2018-06-02T11:22:01.883Z,94.50
2018-06-02T11:24:29.336Z,95.00
2018-06-02T11:26:56.808Z,93.90
2018-06-02T11:29:24.260Z,94.20
2018-06-02T11:31:51.728Z,94.40
2018-06-02T11:34:19.168Z,93.60
2018-06-02T11:36:46.629Z,93.80
2018-06-02T11:39:14.099Z,94.00
2018-06-02T11:41:41.574Z,94.30
2018-06-02T11:44:09.055Z,95.10
2018-06-02T11:46:36.493Z,93.20
2018-06-02T11:49:03.950Z,92.20
2018-06-02T11:51:31.412Z,93.10
2018-06-02T11:53:58.895Z,92.70
2018-06-02T11:56:26.360Z,92.90
2018-06-02T11:58:54.605Z,91.80
2018-06-02T12:01:22.053Z,91.50
2018-06-02T12:03:49.514Z,91.70
2018-06-02T12:06:16.966Z,93.10
2018-06-02T12:08:44.445Z,91.70
2018-06-02T12:11:11.902Z,91.20
2018-06-02T12:13:40.127Z,91.40
2018-06-02T12:16:07.582Z,91.50
2018-06-02T12:18:35.039Z,92.10
2018-06-02T12:21:02.494Z,91.70
2018-06-02T12:23:29.970Z,91.20
2018-06-02T12:25:57.423Z,91.10
2018-06-02T12:28:24.920Z,91.60
2018-06-02T12:30:52.335Z,91.00
2018-06-02T12:33:19.792Z,91.60
2018-06-02T12:35:47.250Z,90.70
2018-06-02T12:38:14.697Z,90.60
2018-06-02T12:40:42.164Z,90.30
2018-06-02T12:43:09.620Z,89.80
2018-06-02T12:45:37.072Z,91.80
2018-06-02T12:48:04.542Z,89.10
2018-06-02T12:50:32.791Z,90.30
2018-06-02T12:53:00.242Z,90.30
2018-06-02T12:55:27.701Z,87.40
2018-06-02T12:57:55.160Z,90.40
2018-06-02T13:00:22.646Z,88.60
2018-06-02T13:02:50.877Z,90.80
2018-06-02T13:05:18.359Z,90.80
2018-06-02T13:07:45.805Z,89.90
2018-06-02T13:10:13.287Z,90.10
2018-06-02T13:12:40.728Z,89.50
2018-06-02T13:15:08.192Z,88.30
2018-06-02T13:17:35.656Z,88.50
2018-06-02T13:20:03.124Z,89.20
2018-06-02T13:22:30.585Z,89.00
2018-06-02T13:24:58.042Z,88.40
2018-06-02T13:27:25.514Z,89.80
2018-06-02T13:29:52.972Z,90.00
2018-06-02T13:32:20.467Z,88.90
2018-06-02T13:34:47.917Z,89.70
2018-06-02T13:37:15.407Z,90.20
2018-06-02T13:39:43.638Z,90.50
2018-06-02T13:42:11.786Z,90.50
2018-06-02T13:44:39.274Z,88.40
2018-06-02T13:47:06.741Z,85.40
2018-06-02T13:49:34.198Z,86.90
2018-06-02T13:52:01.667Z,85.60
2018-06-02T13:54:29.111Z,85.40
2018-06-02T13:56:56.592Z,85.40
2018-06-02T13:59:24.061Z,87.80
2018-06-02T14:01:52.282Z,86.40
2018-06-02T14:04:20.511Z,83.80
2018-06-02T14:06:47.974Z,83.80
2018-06-02T14:09:15.444Z,85.20
2018-06-02T14:11:42.900Z,87.40
2018-06-02T14:14:10.372Z,86.40
2018-06-02T14:16:37.845Z,84.30
2018-06-02T14:19:05.538Z,84.90
2018-06-02T14:21:33.759Z,83.40
2018-06-02T14:24:01.209Z,83.20
2018-06-02T14:26:28.684Z,80.40
2018-06-02T14:28:56.137Z,81.60
2018-06-02T14:31:23.593Z,82.00
2018-06-02T14:33:51.046Z,81.10
2018-06-02T14:36:18.512Z,82.80
2018-06-02T14:38:45.981Z,83.20
2018-06-02T14:41:13.442Z,81.00
2018-06-02T14:43:40.944Z,79.70
2018-06-02T14:46:08.424Z,81.50
2018-06-02T14:48:35.889Z,81.50
2018-06-02T14:51:03.337Z,83.60
2018-06-02T14:53:30.799Z,81.10
2018-06-02T14:55:58.267Z,83.50
2018-06-02T14:58:25.707Z,85.60
2018-06-02T15:00:53.180Z,82.80
2018-06-02T15:03:20.649Z,84.40
2018-06-02T15:05:48.096Z,79.10
2018-06-02T15:08:15.553Z,81.00
2018-06-02T15:10:42.994Z,79.60
2018-06-02T15:13:10.454Z,79.00
2018-06-02T15:15:37.918Z,78.80
2018-06-02T15:18:05.377Z,80.80
2018-06-02T15:20:32.817Z,80.00
2018-06-02T15:23:01.065Z,79.90
2018-06-02T15:25:28.546Z,79.90
2018-06-02T15:27:56.005Z,79.60
2018-06-02T15:30:23.460Z,80.60
2018-06-02T15:32:50.926Z,78.10
2018-06-02T15:35:18.494Z,80.00
2018-06-02T15:37:46.000Z,81.00
2018-06-02T15:40:13.475Z,80.00
2018-06-02T15:42:41.711Z,80.80
2018-06-02T15:45:09.942Z,80.90
2018-06-02T15:47:37.409Z,80.90
2018-06-02T15:50:04.860Z,79.50
2018-06-02T15:52:32.317Z,80.00
2018-06-02T15:54:59.778Z,80.10
2018-06-02T15:57:27.263Z,78.40
2018-06-02T15:59:54.742Z,77.20
2018-06-02T16:02:22.186Z,79.20
2018-06-02T16:04:49.644Z,79.10
2018-06-02T16:07:17.113Z,78.50
2018-06-02T16:09:44.561Z,78.00
2018-06-02T16:12:12.060Z,76.90
2018-06-02T16:14:39.527Z,78.00
2018-06-02T16:17:06.984Z,76.90
2018-06-02T16:19:34.433Z,75.40
2018-06-02T16:22:01.938Z,78.70
2018-06-02T16:24:29.379Z,78.00
2018-06-02T16:26:56.860Z,78.40
2018-06-02T16:29:25.074Z,78.90
2018-06-02T16:31:52.534Z,78.80
2018-06-02T16:34:20.000Z,80.40
2018-06-02T16:36:47.449Z,79.50
2018-06-02T16:39:15.691Z,81.70
2018-06-02T16:41:43.962Z,83.80
2018-06-02T16:44:11.423Z,83.10
2018-06-02T16:46:38.884Z,83.70
2018-06-02T16:49:06.379Z,82.20
2018-06-02T16:51:34.583Z,82.70
2018-06-02T16:54:02.044Z,82.70
2018-06-02T16:56:29.504Z,83.80
2018-06-02T17:00:02.045Z,85.00
2018-06-02T17:02:30.283Z,82.30
2018-06-02T17:04:58.458Z,83.20
2018-06-02T17:07:26.637Z,80.90
2018-06-02T17:09:55.453Z,82.50
2018-06-02T17:12:23.588Z,82.70
2018-06-02T17:14:51.758Z,82.80
2018-06-02T17:17:20.457Z,82.80
2018-06-02T17:19:48.714Z,83.40
2018-06-02T17:22:41.650Z,82.70
2018-06-02T17:25:09.792Z,85.40
2018-06-02T17:27:49.987Z,84.80
2018-06-02T17:30:55.285Z,86.40
2018-06-02T17:33:23.497Z,87.00
2018-06-02T17:35:51.861Z,86.30
2018-06-02T17:38:20.006Z,87.30
2018-06-02T17:40:48.177Z,87.50
2018-06-02T17:43:16.349Z,89.20
2018-06-02T17:45:44.771Z,88.60
2018-06-02T17:48:12.924Z,89.50
2018-06-02T17:50:41.098Z,89.70
2018-06-02T17:53:09.261Z,89.60
2018-06-02T17:55:37.771Z,89.20
2018-06-02T17:58:08.222Z,89.40
2018-06-02T18:00:36.433Z,90.00
2018-06-02T18:03:04.639Z,88.80
2018-06-02T18:05:33.235Z,89.40
2018-06-02T18:08:06.777Z,89.50
2018-06-02T18:10:35.255Z,90.20
2018-06-02T18:13:07.622Z,88.70
2018-06-02T18:18:43.519Z,88.40
2018-06-02T18:21:22.351Z,88.30
2018-06-02T18:23:50.545Z,87.60
2018-06-02T18:26:18.958Z,88.60
2018-06-02T18:28:47.173Z,89.10
2018-06-02T18:31:15.357Z,89.70
2018-06-02T18:33:43.542Z,90.30
2018-06-02T18:36:11.714Z,90.30
2018-06-02T18:38:39.882Z,90.40
2018-06-02T18:41:08.091Z,90.80
2018-06-02T18:43:36.245Z,90.80
2018-06-02T18:46:04.449Z,90.70
2018-06-02T18:48:32.625Z,90.90
2018-06-02T18:51:00.787Z,90.70
2018-06-02T18:53:28.989Z,90.60
2018-06-02T18:56:10.340Z,90.30
2018-06-02T18:58:40.775Z,90.30
2018-06-02T19:01:08.951Z,90.10
2018-06-02T19:03:37.144Z,89.70
2018-06-02T19:06:09.907Z,89.60
2018-06-02T19:08:39.045Z,90.70
2018-06-02T19:11:14.755Z,90.80
2018-06-02T19:13:43.595Z,90.80
2018-06-02T19:16:11.868Z,90.70
2018-06-02T19:18:40.088Z,90.80
2018-06-02T19:23:51.258Z,90.40
2018-06-02T19:26:19.704Z,90.60
2018-06-02T19:28:47.919Z,90.70
2018-06-02T19:31:17.373Z,91.00
2018-06-02T19:33:46.703Z,91.20
2018-06-02T19:36:15.549Z,91.20
2018-06-02T19:38:44.339Z,91.30
2018-06-02T19:41:13.033Z,91.10
2018-06-02T19:43:41.883Z,91.40
2018-06-02T19:46:11.149Z,91.30
2018-06-02T19:48:40.037Z,91.40
2018-06-02T19:51:09.099Z,91.70
2018-06-02T19:53:37.902Z,91.90
2018-06-02T19:56:06.875Z,91.80
2018-06-02T19:58:35.614Z,91.60
2018-06-02T20:03:32.623Z,92.10
2018-06-02T20:06:01.685Z,92.10
2018-06-02T20:08:30.305Z,92.50
2018-06-02T20:10:58.967Z,92.90
2018-06-02T20:13:27.830Z,93.10
2018-06-02T20:15:56.794Z,93.50
2018-06-02T20:18:25.917Z,93.60
2018-06-02T20:20:55.007Z,93.90
2018-06-02T20:23:23.738Z,94.30
2018-06-02T20:25:52.455Z,94.60
2018-06-02T20:28:20.840Z,94.50
2018-06-02T20:30:50.063Z,94.60
2018-06-02T20:33:27.753Z,94.60
2018-06-02T20:35:56.692Z,95.00
2018-06-02T20:38:26.163Z,95.10
2018-06-02T20:40:55.584Z,95.20
2018-06-02T20:43:25.691Z,95.30
2018-06-02T20:45:55.158Z,95.50
2018-06-02T20:48:27.787Z,95.80
2018-06-02T20:50:58.427Z,95.70
2018-06-02T20:53:30.568Z,95.20
2018-06-02T20:56:01.538Z,95.30
2018-06-02T20:58:30.408Z,95.30
2018-06-02T21:00:59.783Z,95.30
2018-06-02T21:03:28.646Z,95.50
2018-06-02T21:05:58.585Z,95.70
2018-06-02T21:08:28.063Z,96.30
2018-06-02T21:10:57.304Z,96.10
2018-06-02T21:13:26.477Z,96.20
2018-06-02T21:15:55.680Z,96.10
2018-06-02T21:18:26.255Z,96.20
2018-06-02T21:20:55.180Z,96.60
2018-06-02T21:23:24.980Z,96.40
2018-06-02T21:25:54.291Z,96.10
2018-06-02T21:28:24.916Z,96.20
2018-06-02T21:30:54.284Z,96.40
2018-06-02T21:33:23.771Z,96.90
2018-06-02T21:35:53.199Z,97.00
2018-06-02T21:40:52.292Z,96.90
2018-06-02T21:43:21.446Z,96.50
2018-06-02T21:45:50.566Z,96.80
2018-06-02T21:48:20.064Z,96.70
2018-06-02T21:50:49.610Z,96.60
2018-06-02T21:53:18.345Z,96.50
2018-06-02T21:55:47.270Z,96.60
2018-06-02T21:58:16.230Z,97.10
2018-06-02T22:00:45.633Z,96.80
2018-06-02T22:03:15.190Z,96.80
2018-06-02T22:05:44.349Z,97.30
2018-06-02T22:08:13.412Z,97.40
2018-06-02T22:10:42.909Z,97.60
2018-06-02T22:13:11.616Z,97.60
2018-06-02T22:15:41.239Z,98.00
2018-06-02T22:18:10.013Z,97.90
2018-06-02T22:23:07.857Z,98.30
2018-06-02T22:25:36.587Z,98.10
2018-06-02T22:28:05.473Z,98.10
2018-06-02T22:30:34.348Z,98.50
2018-06-02T22:33:03.096Z,98.40
2018-06-02T22:35:33.392Z,98.20
2018-06-02T22:38:02.605Z,98.30
2018-06-02T22:40:31.578Z,98.10
2018-06-02T22:43:01.781Z,98.20
2018-06-02T22:45:31.168Z,98.00
2018-06-02T22:48:00.489Z,98.80
2018-06-02T22:50:29.610Z,99.00
2018-06-02T22:52:59.438Z,99.40
2018-06-02T22:55:28.464Z,99.40
2018-06-02T22:57:57.090Z,99.20
2018-06-02T23:00:26.240Z,99.10
2018-06-02T23:05:23.532Z,99.40
2018-06-02T23:07:53.716Z,99.40
2018-06-02T23:10:23.009Z,99.60
2018-06-02T23:12:52.036Z,99.60
2018-06-02T23:15:20.826Z,99.70
2018-06-02T23:17:50.508Z,99.90
2018-06-02T23:20:20.173Z,99.90
2018-06-02T23:25:17.938Z,99.90
2018-06-02T23:27:46.888Z,99.90
2018-06-02T23:30:15.589Z,99.90
2018-06-02T23:32:44.375Z,99.90
2018-06-02T23:35:15.459Z,99.90
2018-06-02T23:37:44.341Z,99.90
2018-06-02T23:40:13.999Z,99.90
2018-06-02T23:42:43.764Z,99.90
2018-06-02T23:45:12.969Z,99.90
2018-06-02T23:47:42.384Z,99.90
2018-06-02T23:50:12.057Z,99.90
2018-06-02T23:52:41.887Z,99.90
2018-06-02T23:55:10.851Z,99.90
2018-06-02T23:57:40.466Z,99.90
